createdAt,value
2022-11-19T00:00:05.593Z,6.10
2022-11-19T00:01:05.504Z,6.20
2022-11-19T00:02:05.558Z,6.20
2022-11-19T00:03:05.484Z,6.40
2022-11-19T00:04:05.585Z,6.40
2022-11-19T00:05:05.465Z,6.50
2022-11-19T00:06:05.457Z,6.10
2022-11-19T00:07:05.473Z,6.30
2022-11-19T00:08:05.425Z,6.40
2022-11-19T00:09:05.416Z,6.30
2022-11-19T00:10:05.454Z,6.40
2022-11-19T00:11:08.244Z,6.50
2022-11-19T00:12:05.387Z,6.60
2022-11-19T00:13:05.376Z,6.70
2022-11-19T00:14:05.355Z,6.60
2022-11-19T00:15:05.376Z,7.00
2022-11-19T00:16:05.339Z,6.60
2022-11-19T00:17:05.328Z,7.30
2022-11-19T00:18:05.305Z,7.60
2022-11-19T00:19:05.295Z,6.80
2022-11-19T00:20:05.295Z,7.50
2022-11-19T00:21:05.306Z,7.10
2022-11-19T00:22:05.288Z,6.60
2022-11-19T00:23:05.271Z,6.60
2022-11-19T00:24:05.248Z,7.00
2022-11-19T00:25:05.237Z,7.40
2022-11-19T00:26:05.228Z,6.90
2022-11-19T00:27:05.228Z,7.40
2022-11-19T00:28:05.198Z,7.70
2022-11-19T00:29:05.194Z,7.00
2022-11-19T00:30:10.996Z,7.50
2022-11-19T00:31:06.164Z,7.20
2022-11-19T00:32:05.147Z,7.60
2022-11-19T00:33:05.175Z,6.90
2022-11-19T00:34:05.137Z,7.70
2022-11-19T00:35:05.127Z,8.00
2022-11-19T00:36:05.100Z,7.60
2022-11-19T00:37:05.103Z,7.30
2022-11-19T00:38:05.100Z,7.50
2022-11-19T00:39:05.096Z,7.60
2022-11-19T00:40:05.058Z,7.90
2022-11-19T00:41:05.048Z,7.80
2022-11-19T00:42:05.057Z,8.10
2022-11-19T00:43:05.019Z,8.40
2022-11-19T00:44:05.023Z,7.80
2022-11-19T00:45:05.038Z,8.50
2022-11-19T00:46:05.013Z,8.60
2022-11-19T00:47:04.972Z,9.00
2022-11-19T00:48:04.996Z,8.80
2022-11-19T00:49:04.958Z,8.60
2022-11-19T00:50:04.941Z,8.80
2022-11-19T00:51:04.953Z,8.70
2022-11-19T00:52:04.919Z,8.20
2022-11-19T00:53:04.909Z,9.00
2022-11-19T00:54:04.909Z,7.50
2022-11-19T00:55:04.888Z,8.90
2022-11-19T00:56:04.913Z,8.30
2022-11-19T00:57:04.859Z,8.10
2022-11-19T00:58:04.851Z,8.70
2022-11-19T00:59:04.851Z,8.00
2022-11-19T01:00:04.835Z,7.50
2022-11-19T01:01:04.871Z,8.10
2022-11-19T01:02:04.863Z,8.10
2022-11-19T01:03:04.790Z,7.60
2022-11-19T01:04:04.783Z,8.00
2022-11-19T01:05:04.781Z,8.20
2022-11-19T01:06:04.783Z,8.60
2022-11-19T01:07:04.780Z,8.90
2022-11-19T01:08:04.777Z,8.50
2022-11-19T01:09:04.720Z,8.90
2022-11-19T01:10:04.710Z,9.40
2022-11-19T01:11:04.707Z,8.30
2022-11-19T01:12:04.690Z,9.00
2022-11-19T01:13:04.673Z,9.00
2022-11-19T01:14:04.684Z,9.40
2022-11-19T01:15:04.660Z,10.10
2022-11-19T01:16:04.652Z,8.70
2022-11-19T01:17:04.631Z,9.60
2022-11-19T01:18:04.622Z,9.50
2022-11-19T01:19:04.603Z,9.50
2022-11-19T01:20:04.667Z,9.50
2022-11-19T01:21:04.603Z,8.80
2022-11-19T01:22:04.574Z,9.70
2022-11-19T01:23:04.563Z,9.20
2022-11-19T01:24:05.505Z,9.90
2022-11-19T01:25:04.552Z,10.40
2022-11-19T01:26:04.560Z,9.70
2022-11-19T01:27:04.514Z,10.30
2022-11-19T01:28:04.506Z,10.60
2022-11-19T01:29:04.492Z,10.20
2022-11-19T01:30:04.482Z,10.40
2022-11-19T01:31:04.475Z,10.70
2022-11-19T01:32:04.482Z,9.50
2022-11-19T01:33:04.450Z,10.40
2022-11-19T01:34:04.432Z,9.50
2022-11-19T01:35:04.412Z,10.90
2022-11-19T01:36:04.423Z,10.60
2022-11-19T01:37:04.394Z,10.70
2022-11-19T01:38:04.417Z,10.50
2022-11-19T01:39:04.379Z,11.60
2022-11-19T01:40:04.385Z,10.30
2022-11-19T01:41:04.372Z,10.60
2022-11-19T01:42:04.347Z,10.90
2022-11-19T01:43:04.331Z,11.80
2022-11-19T01:44:04.364Z,11.30
2022-11-19T01:45:04.307Z,10.60
2022-11-19T01:46:04.324Z,11.80
2022-11-19T01:47:04.286Z,11.40
2022-11-19T01:48:04.275Z,11.70
2022-11-19T01:49:04.266Z,11.20
2022-11-19T01:50:04.303Z,11.60
2022-11-19T01:51:04.235Z,11.90
2022-11-19T01:52:04.244Z,11.50
2022-11-19T01:53:04.204Z,12.20
2022-11-19T01:54:04.226Z,13.30
2022-11-19T01:55:04.236Z,12.50
2022-11-19T01:56:04.207Z,11.80
2022-11-19T01:57:04.165Z,12.10
2022-11-19T01:58:04.157Z,12.10
2022-11-19T01:59:04.148Z,12.20
2022-11-19T02:00:04.127Z,12.50
2022-11-19T02:01:04.215Z,13.00
2022-11-19T02:02:04.130Z,12.90
2022-11-19T02:03:04.096Z,13.00
2022-11-19T02:04:04.137Z,14.20
2022-11-19T02:05:04.078Z,12.30
2022-11-19T02:06:04.092Z,13.70
2022-11-19T02:07:04.163Z,13.50
2022-11-19T02:08:04.045Z,13.60
2022-11-19T02:09:04.030Z,14.10
2022-11-19T02:10:04.029Z,13.80
2022-11-19T02:11:04.017Z,14.40
2022-11-19T02:12:04.016Z,14.00
2022-11-19T02:13:04.018Z,14.30
2022-11-19T02:14:03.968Z,14.20
2022-11-19T02:15:03.976Z,14.30
2022-11-19T02:16:03.949Z,14.20
2022-11-19T02:17:03.950Z,14.70
2022-11-19T02:18:03.956Z,14.50
2022-11-19T02:19:03.917Z,13.40
2022-11-19T02:20:03.914Z,14.80
2022-11-19T02:21:03.898Z,14.30
2022-11-19T02:22:03.886Z,14.20
2022-11-19T02:23:03.878Z,14.50
2022-11-19T02:24:03.885Z,13.40
2022-11-19T02:25:03.860Z,14.70
2022-11-19T02:26:03.850Z,14.20
2022-11-19T02:27:03.827Z,14.00
2022-11-19T02:28:03.830Z,14.80
2022-11-19T02:29:03.849Z,14.40
2022-11-19T02:30:03.818Z,13.40
2022-11-19T02:31:03.791Z,13.90
2022-11-19T02:32:03.778Z,14.00
2022-11-19T02:33:03.780Z,14.60
2022-11-19T02:34:03.756Z,15.00
2022-11-19T02:35:03.799Z,14.60
2022-11-19T02:36:03.730Z,14.70
2022-11-19T02:37:03.729Z,16.00
2022-11-19T02:38:03.713Z,14.60
2022-11-19T02:39:03.698Z,14.70
2022-11-19T02:40:03.679Z,14.90
2022-11-19T02:41:03.720Z,16.10
2022-11-19T02:42:03.668Z,15.10
2022-11-19T02:43:03.659Z,14.60
2022-11-19T02:44:03.641Z,15.30
2022-11-19T02:45:03.630Z,15.60
2022-11-19T02:46:03.639Z,15.00
2022-11-19T02:47:03.608Z,15.40
2022-11-19T02:48:03.590Z,15.90
2022-11-19T02:49:03.587Z,14.80
2022-11-19T02:50:03.569Z,15.20
2022-11-19T02:51:03.570Z,15.70
2022-11-19T02:52:03.583Z,16.10
2022-11-19T02:53:03.540Z,15.30
2022-11-19T02:54:03.539Z,16.40
2022-11-19T02:55:03.510Z,16.50
2022-11-19T02:56:03.509Z,16.30
2022-11-19T02:57:03.554Z,15.90
2022-11-19T02:58:03.510Z,16.00
2022-11-19T02:59:03.480Z,16.00
2022-11-19T03:00:03.507Z,16.30
2022-11-19T03:01:03.523Z,15.70
2022-11-19T03:02:03.440Z,16.90
2022-11-19T03:03:03.611Z,16.90
2022-11-19T03:04:03.420Z,16.10
2022-11-19T03:05:03.412Z,17.20
2022-11-19T03:06:03.405Z,16.90
2022-11-19T03:07:03.488Z,18.20
2022-11-19T03:08:03.390Z,18.20
2022-11-19T03:09:03.400Z,17.40
2022-11-19T03:10:03.349Z,17.40
2022-11-19T03:11:03.340Z,19.60
2022-11-19T03:12:03.331Z,18.30
2022-11-19T03:13:03.331Z,18.70
2022-11-19T03:14:03.580Z,18.20
2022-11-19T03:15:03.320Z,18.10
2022-11-19T03:16:03.295Z,18.90
2022-11-19T03:17:03.280Z,18.50
2022-11-19T03:18:03.269Z,18.30
2022-11-19T03:19:03.261Z,19.00
2022-11-19T03:20:03.281Z,18.90
2022-11-19T03:21:03.242Z,19.50
2022-11-19T03:22:03.222Z,19.00
2022-11-19T03:23:03.211Z,18.20
2022-11-19T03:24:03.205Z,18.90
2022-11-19T03:25:03.232Z,17.80
2022-11-19T03:26:03.183Z,18.60
2022-11-19T03:27:03.165Z,19.40
2022-11-19T03:28:03.155Z,18.70
2022-11-19T03:29:03.151Z,18.50
2022-11-19T03:30:03.147Z,18.90
2022-11-19T03:31:03.150Z,19.30
2022-11-19T03:32:03.114Z,19.80
2022-11-19T03:33:03.112Z,19.00
2022-11-19T03:34:03.126Z,19.20
2022-11-19T03:35:03.086Z,19.40
2022-11-19T03:36:03.073Z,19.00
2022-11-19T03:37:03.080Z,19.00
2022-11-19T03:38:03.041Z,19.50
2022-11-19T03:39:03.024Z,18.90
2022-11-19T03:40:03.034Z,19.20
2022-11-19T03:41:03.007Z,18.70
2022-11-19T03:42:03.038Z,18.40
2022-11-19T03:43:03.003Z,19.40
2022-11-19T03:44:02.994Z,17.70
2022-11-19T03:45:02.964Z,18.70
2022-11-19T03:46:02.964Z,18.70
2022-11-19T03:47:02.962Z,18.90
2022-11-19T03:48:02.955Z,18.80
2022-11-19T03:49:02.915Z,18.00
2022-11-19T03:50:02.941Z,18.50
2022-11-19T03:51:02.903Z,18.70
2022-11-19T03:52:02.895Z,19.30
2022-11-19T03:53:04.349Z,18.20
2022-11-19T03:54:02.891Z,18.70
2022-11-19T03:55:02.865Z,19.10
2022-11-19T03:56:02.844Z,18.70
2022-11-19T03:57:02.836Z,19.10
2022-11-19T03:58:02.838Z,18.70
2022-11-19T03:59:02.844Z,18.90
2022-11-19T04:00:02.808Z,19.70
2022-11-19T04:01:02.806Z,19.10
2022-11-19T04:02:02.838Z,18.30
2022-11-19T04:03:02.781Z,18.10
2022-11-19T04:04:02.755Z,18.80
2022-11-19T04:05:02.776Z,17.90
2022-11-19T04:06:02.735Z,17.60
2022-11-19T04:07:02.756Z,18.60
2022-11-19T04:08:02.711Z,18.80
2022-11-19T04:09:02.706Z,18.30
2022-11-19T04:10:02.696Z,18.50
2022-11-19T04:11:32.886Z,16.90
2022-11-19T04:12:32.890Z,18.60
2022-11-19T04:13:32.858Z,18.80
2022-11-19T04:14:32.837Z,18.40
2022-11-19T04:15:32.817Z,17.90
2022-11-19T04:16:32.848Z,18.40
2022-11-19T04:17:32.800Z,18.40
2022-11-19T04:18:32.787Z,17.40
2022-11-19T04:19:32.799Z,18.10
2022-11-19T04:20:32.781Z,17.70
2022-11-19T04:21:32.762Z,18.00
2022-11-19T04:22:32.839Z,17.50
2022-11-19T04:23:32.730Z,17.50
2022-11-19T04:24:32.749Z,16.80
2022-11-19T04:25:32.708Z,16.90
2022-11-19T04:26:32.731Z,17.70
2022-11-19T04:27:32.724Z,17.40
2022-11-19T04:28:32.698Z,17.30
2022-11-19T04:29:32.688Z,17.00
2022-11-19T04:30:32.673Z,16.50
2022-11-19T04:31:32.695Z,16.50
2022-11-19T04:32:32.663Z,15.70
2022-11-19T04:33:32.664Z,17.10
2022-11-19T04:34:32.626Z,17.80
2022-11-19T04:35:32.611Z,16.50
2022-11-19T04:36:32.627Z,16.90
2022-11-19T04:37:32.592Z,16.30
2022-11-19T04:38:32.600Z,15.80
2022-11-19T04:39:32.566Z,15.80
2022-11-19T04:40:32.559Z,16.50
2022-11-19T04:41:32.543Z,15.80
2022-11-19T04:42:32.541Z,15.50
2022-11-19T04:43:32.522Z,16.90
2022-11-19T04:44:32.529Z,16.10
2022-11-19T04:45:32.508Z,15.90
2022-11-19T04:46:32.488Z,15.10
2022-11-19T04:47:32.473Z,15.80
2022-11-19T04:48:32.479Z,15.20
2022-11-19T04:49:32.451Z,15.90
2022-11-19T04:50:32.469Z,15.20
2022-11-19T04:51:32.429Z,15.10
2022-11-19T04:52:36.342Z,15.70
2022-11-19T04:53:33.402Z,15.30
2022-11-19T04:54:32.391Z,15.00
2022-11-19T04:55:32.403Z,15.30
2022-11-19T04:56:32.423Z,15.50
2022-11-19T04:57:32.353Z,15.30
2022-11-19T04:58:32.366Z,14.50
2022-11-19T04:59:32.330Z,14.80
2022-11-19T05:00:32.340Z,15.10
2022-11-19T05:01:32.377Z,14.80
2022-11-19T05:02:32.334Z,15.50
2022-11-19T05:03:32.282Z,15.00
2022-11-19T05:04:32.281Z,15.50
2022-11-19T05:05:32.277Z,14.80
2022-11-19T05:06:32.250Z,15.70
2022-11-19T05:07:32.363Z,15.50
2022-11-19T05:08:32.232Z,14.90
2022-11-19T05:09:32.224Z,16.00
2022-11-19T05:10:32.212Z,15.60
2022-11-19T05:11:32.200Z,14.70
2022-11-19T05:12:32.203Z,15.20
2022-11-19T05:13:32.240Z,15.30
2022-11-19T05:14:32.211Z,16.30
2022-11-19T05:15:32.166Z,16.00
2022-11-19T05:16:32.160Z,15.00
2022-11-19T05:17:32.133Z,15.60
2022-11-19T05:18:32.147Z,15.10
2022-11-19T05:19:32.164Z,15.00
2022-11-19T05:20:32.104Z,15.30
2022-11-19T05:21:32.113Z,14.80
2022-11-19T05:22:32.082Z,15.20
2022-11-19T05:23:32.073Z,14.90
2022-11-19T05:24:32.053Z,14.70
2022-11-19T05:25:32.066Z,16.00
2022-11-19T05:26:32.032Z,14.90
2022-11-19T05:27:32.025Z,15.60
2022-11-19T05:28:38.662Z,15.40
2022-11-19T05:29:33.013Z,15.90
2022-11-19T05:30:32.024Z,15.70
2022-11-19T05:31:31.976Z,15.50
2022-11-19T05:32:31.965Z,15.70
2022-11-19T05:33:34.156Z,16.20
2022-11-19T05:34:31.954Z,15.60
2022-11-19T05:35:31.934Z,15.00
2022-11-19T05:36:31.945Z,15.50
2022-11-19T05:37:31.928Z,15.40
2022-11-19T05:38:31.903Z,14.10
2022-11-19T05:39:31.885Z,14.10
2022-11-19T05:40:31.906Z,15.60
2022-11-19T05:41:31.892Z,14.70
2022-11-19T05:42:31.854Z,15.00
2022-11-19T05:43:31.845Z,14.30
2022-11-19T05:44:31.846Z,15.20
2022-11-19T05:45:31.816Z,15.80
2022-11-19T05:46:31.804Z,14.80
2022-11-19T05:47:31.835Z,14.90
2022-11-19T05:48:31.794Z,14.70
2022-11-19T05:49:31.789Z,14.20
2022-11-19T05:50:31.768Z,13.80
2022-11-19T05:51:31.767Z,13.40
2022-11-19T05:52:31.735Z,14.50
2022-11-19T05:53:31.759Z,14.10
2022-11-19T05:54:31.762Z,13.10
2022-11-19T05:55:31.705Z,12.90
2022-11-19T05:56:31.700Z,13.30
2022-11-19T05:57:31.678Z,13.40
2022-11-19T05:58:31.677Z,13.00
2022-11-19T05:59:31.675Z,13.90
2022-11-19T06:00:31.646Z,13.60
2022-11-19T06:01:31.635Z,13.60
2022-11-19T06:02:31.743Z,12.80
2022-11-19T06:03:31.618Z,13.80
2022-11-19T06:04:31.625Z,13.00
2022-11-19T06:05:35.869Z,13.70
2022-11-19T06:06:32.586Z,14.20
2022-11-19T06:07:31.599Z,14.00
2022-11-19T06:08:31.584Z,12.50
2022-11-19T06:09:31.542Z,12.70
2022-11-19T06:10:31.595Z,13.40
2022-11-19T06:11:31.557Z,13.80
2022-11-19T06:12:31.526Z,13.50
2022-11-19T06:13:31.514Z,13.10
2022-11-19T06:14:31.497Z,12.90
2022-11-19T06:15:31.517Z,12.50
2022-11-19T06:16:31.467Z,12.40
2022-11-19T06:17:31.505Z,13.60
2022-11-19T06:18:31.510Z,13.00
2022-11-19T06:19:31.554Z,13.70
2022-11-19T06:20:31.458Z,12.90
2022-11-19T06:21:31.435Z,12.20
2022-11-19T06:22:31.408Z,14.10
2022-11-19T06:23:31.407Z,12.40
2022-11-19T06:24:31.389Z,12.80
2022-11-19T06:25:31.391Z,13.00
2022-11-19T06:26:31.357Z,13.70
2022-11-19T06:27:31.385Z,12.20
2022-11-19T06:28:31.337Z,13.40
2022-11-19T06:29:31.327Z,12.90
2022-11-19T06:30:31.413Z,13.80
2022-11-19T06:31:31.339Z,13.70
2022-11-19T06:32:31.297Z,13.40
2022-11-19T06:33:31.297Z,13.50
2022-11-19T06:34:31.271Z,13.90
2022-11-19T06:35:31.300Z,13.10
2022-11-19T06:36:37.349Z,13.70
2022-11-19T06:37:32.297Z,13.10
2022-11-19T06:38:31.261Z,13.10
2022-11-19T06:39:31.259Z,13.00
2022-11-19T06:40:31.229Z,13.40
2022-11-19T06:41:31.221Z,13.70
2022-11-19T06:42:31.199Z,13.40
2022-11-19T06:43:31.179Z,14.10
2022-11-19T06:44:31.218Z,15.30
2022-11-19T06:45:31.166Z,13.90
2022-11-19T06:46:31.173Z,36.30
2022-11-19T06:47:31.128Z,21.60
2022-11-19T06:48:31.132Z,15.70
2022-11-19T06:49:31.119Z,14.30
2022-11-19T06:50:31.129Z,19.40
2022-11-19T06:51:31.102Z,17.30
2022-11-19T06:52:31.091Z,15.10
2022-11-19T06:53:31.087Z,36.60
2022-11-19T06:54:31.039Z,26.20
2022-11-19T06:55:31.109Z,35.90
2022-11-19T06:56:31.020Z,33.80
2022-11-19T06:57:31.018Z,25.60
2022-11-19T06:58:31.008Z,26.50
2022-11-19T06:59:31.030Z,16.00
2022-11-19T07:00:30.981Z,16.10
2022-11-19T07:01:31.071Z,17.50
2022-11-19T07:02:30.982Z,15.60
2022-11-19T07:03:30.950Z,14.00
2022-11-19T07:04:30.939Z,14.50
2022-11-19T07:05:30.947Z,13.50
2022-11-19T07:06:30.910Z,17.10
2022-11-19T07:07:31.007Z,13.80
2022-11-19T07:08:30.890Z,14.60
2022-11-19T07:09:30.869Z,14.10
2022-11-19T07:10:30.861Z,15.50
2022-11-19T07:11:30.850Z,14.40
2022-11-19T07:12:30.851Z,16.80
2022-11-19T07:13:30.850Z,15.30
2022-11-19T07:14:30.887Z,14.80
2022-11-19T07:15:30.820Z,15.30
2022-11-19T07:16:30.810Z,17.30
2022-11-19T07:17:30.796Z,18.60
2022-11-19T07:18:30.791Z,16.20
2022-11-19T07:19:30.765Z,15.10
2022-11-19T07:20:30.776Z,16.20
2022-11-19T07:21:30.743Z,16.20
2022-11-19T07:22:30.731Z,15.90
2022-11-19T07:23:30.733Z,16.30
2022-11-19T07:24:30.823Z,15.10
2022-11-19T07:25:30.705Z,14.90
2022-11-19T07:26:30.691Z,24.00
2022-11-19T07:27:30.671Z,25.30
2022-11-19T07:28:30.671Z,16.80
2022-11-19T07:29:30.691Z,15.70
2022-11-19T07:30:30.663Z,16.30
2022-11-19T07:31:30.624Z,14.50
2022-11-19T07:32:30.628Z,14.20
2022-11-19T07:33:30.616Z,14.50
2022-11-19T07:34:30.594Z,21.00
2022-11-19T07:35:30.615Z,14.00
2022-11-19T07:36:30.585Z,18.00
2022-11-19T07:37:30.553Z,15.70
2022-11-19T07:38:35.632Z,16.20
2022-11-19T07:39:31.532Z,17.00
2022-11-19T07:40:30.538Z,13.70
2022-11-19T07:41:30.536Z,18.60
2022-11-19T07:42:30.513Z,15.90
2022-11-19T07:43:30.502Z,15.20
2022-11-19T07:44:30.503Z,17.20
2022-11-19T07:45:30.473Z,15.10
2022-11-19T07:46:30.504Z,15.10
2022-11-19T07:47:30.445Z,14.10
2022-11-19T07:48:30.486Z,13.40
2022-11-19T07:49:30.423Z,14.00
2022-11-19T07:50:30.422Z,14.90
2022-11-19T07:51:30.403Z,14.10
2022-11-19T07:52:30.421Z,16.20
2022-11-19T07:53:30.379Z,15.20
2022-11-19T07:54:30.400Z,14.80
2022-11-19T07:55:30.351Z,14.90
2022-11-19T07:56:30.387Z,14.10
2022-11-19T07:57:30.714Z,15.00
2022-11-19T07:58:30.346Z,13.50
2022-11-19T07:59:30.304Z,14.00
2022-11-19T08:00:30.295Z,13.90
2022-11-19T08:01:30.338Z,14.00
2022-11-19T08:02:30.286Z,15.20
2022-11-19T08:03:30.261Z,13.90
2022-11-19T08:04:30.303Z,14.10
2022-11-19T08:05:30.244Z,15.10
2022-11-19T08:06:30.236Z,14.40
2022-11-19T08:07:30.329Z,14.70
2022-11-19T08:08:30.213Z,14.30
2022-11-19T08:09:30.225Z,14.90
2022-11-19T08:10:31.937Z,13.90
2022-11-19T08:11:30.183Z,14.20
2022-11-19T08:12:30.179Z,14.20
2022-11-19T08:13:30.155Z,15.70
2022-11-19T08:14:30.163Z,14.50
2022-11-19T08:15:30.155Z,15.10
2022-11-19T08:16:30.113Z,15.70
2022-11-19T08:17:30.117Z,16.20
2022-11-19T08:18:31.510Z,17.30
2022-11-19T08:19:30.095Z,18.10
2022-11-19T08:20:30.066Z,16.70
2022-11-19T08:21:30.100Z,16.60
2022-11-19T08:22:30.055Z,15.90
2022-11-19T08:23:30.046Z,16.20
2022-11-19T08:24:30.036Z,17.90
2022-11-19T08:25:30.083Z,20.30
2022-11-19T08:26:30.000Z,16.70
2022-11-19T08:27:30.038Z,15.10
2022-11-19T08:28:29.975Z,14.80
2022-11-19T08:29:29.965Z,17.10
2022-11-19T08:30:29.955Z,14.10
2022-11-19T08:31:29.975Z,17.40
2022-11-19T08:32:29.956Z,14.60
2022-11-19T08:33:29.925Z,15.80
2022-11-19T08:34:29.906Z,15.00
2022-11-19T08:35:29.917Z,14.00
2022-11-19T08:36:29.895Z,16.20
2022-11-19T08:37:29.908Z,14.20
2022-11-19T08:38:33.337Z,14.80
2022-11-19T08:39:30.857Z,14.90
2022-11-19T08:40:29.847Z,15.20
2022-11-19T08:41:29.854Z,13.80
2022-11-19T08:42:29.840Z,15.00
2022-11-19T08:43:29.839Z,14.50
2022-11-19T08:44:29.804Z,14.50
2022-11-19T08:45:29.812Z,16.40
2022-11-19T08:46:29.766Z,14.80
2022-11-19T08:47:29.833Z,14.20
2022-11-19T08:48:29.780Z,14.60
2022-11-19T08:49:29.794Z,15.00
2022-11-19T08:50:29.719Z,13.60
2022-11-19T08:51:29.731Z,13.80
2022-11-19T08:52:29.746Z,16.10
2022-11-19T08:53:29.722Z,13.90
2022-11-19T08:54:29.697Z,14.00
2022-11-19T08:55:29.719Z,15.10
2022-11-19T08:56:29.696Z,13.90
2022-11-19T08:57:29.662Z,12.60
2022-11-19T08:58:29.658Z,13.70
2022-11-19T08:59:29.636Z,14.40
2022-11-19T09:00:29.741Z,14.40
2022-11-19T09:01:29.631Z,14.30
2022-11-19T09:02:29.599Z,14.80
2022-11-19T09:03:29.578Z,15.60
2022-11-19T09:04:29.642Z,17.20
2022-11-19T09:05:29.595Z,16.80
2022-11-19T09:06:29.597Z,15.40
2022-11-19T09:07:29.606Z,14.10
2022-11-19T09:08:29.528Z,14.20
2022-11-19T09:09:29.518Z,13.70
2022-11-19T09:10:29.510Z,14.80
2022-11-19T09:11:29.515Z,13.60
2022-11-19T09:12:29.608Z,12.70
2022-11-19T09:13:29.468Z,13.70
2022-11-19T09:14:29.465Z,14.40
2022-11-19T09:15:29.438Z,13.80
2022-11-19T09:16:29.437Z,13.80
2022-11-19T09:17:29.418Z,14.80
2022-11-19T09:18:29.535Z,14.80
2022-11-19T09:19:29.411Z,14.40
2022-11-19T09:20:29.410Z,13.60
2022-11-19T09:21:29.435Z,14.80
2022-11-19T09:22:29.433Z,14.70
2022-11-19T09:23:29.379Z,15.00
2022-11-19T09:24:29.388Z,14.40
2022-11-19T09:25:29.331Z,14.20
2022-11-19T09:26:29.349Z,14.50
2022-11-19T09:27:29.309Z,14.50
2022-11-19T09:28:29.319Z,16.00
2022-11-19T09:29:29.319Z,15.30
2022-11-19T09:30:29.279Z,13.80
2022-11-19T09:31:29.282Z,12.80
2022-11-19T09:32:29.351Z,14.30
2022-11-19T09:33:29.247Z,14.00
2022-11-19T09:34:29.332Z,15.00
2022-11-19T09:35:29.226Z,13.80
2022-11-19T09:36:29.208Z,15.00
2022-11-19T09:37:29.210Z,15.60
2022-11-19T09:38:29.199Z,14.40
2022-11-19T09:39:29.191Z,17.30
2022-11-19T09:40:29.193Z,14.50
2022-11-19T09:41:29.160Z,16.20
2022-11-19T09:42:29.143Z,16.10
2022-11-19T09:43:29.130Z,15.70
2022-11-19T09:44:29.119Z,14.10
2022-11-19T09:45:29.113Z,14.40
2022-11-19T09:46:29.140Z,14.10
2022-11-19T09:47:29.089Z,14.70
2022-11-19T09:48:29.085Z,13.80
2022-11-19T09:49:29.069Z,13.70
2022-11-19T09:50:29.050Z,13.80
2022-11-19T09:51:29.092Z,14.10
2022-11-19T09:52:29.026Z,13.70
2022-11-19T09:53:29.030Z,13.80
2022-11-19T09:54:29.022Z,13.60
2022-11-19T09:55:29.010Z,14.10
2022-11-19T09:56:28.994Z,11.90
2022-11-19T09:57:29.012Z,12.40
2022-11-19T09:58:28.997Z,13.00
2022-11-19T09:59:28.961Z,14.10
2022-11-19T10:00:28.942Z,13.10
2022-11-19T10:01:28.935Z,13.50
2022-11-19T10:02:29.037Z,12.90
2022-11-19T10:03:33.237Z,14.20
2022-11-19T10:04:28.900Z,13.40
2022-11-19T10:05:28.893Z,12.30
2022-11-19T10:06:28.985Z,13.30
2022-11-19T10:07:28.927Z,14.10
2022-11-19T10:08:28.891Z,13.80
2022-11-19T10:09:28.852Z,14.20
2022-11-19T10:10:28.836Z,13.40
2022-11-19T10:11:28.813Z,14.70
2022-11-19T10:12:28.816Z,15.50
2022-11-19T10:13:28.795Z,13.80
2022-11-19T10:14:28.831Z,13.40
2022-11-19T10:15:33.117Z,14.20
2022-11-19T10:16:29.770Z,14.40
2022-11-19T10:17:28.751Z,34.80
2022-11-19T10:18:28.799Z,18.90
2022-11-19T10:19:28.883Z,18.10
2022-11-19T10:20:28.796Z,21.30
2022-11-19T10:21:28.702Z,22.30
2022-11-19T10:22:28.708Z,28.00
2022-11-19T10:23:28.824Z,15.50
2022-11-19T10:24:28.674Z,16.00
2022-11-19T10:25:28.656Z,14.80
2022-11-19T10:26:28.674Z,15.30
2022-11-19T10:27:28.640Z,28.10
2022-11-19T10:28:28.635Z,14.30
2022-11-19T10:29:28.615Z,13.10
2022-11-19T10:30:28.624Z,13.00
2022-11-19T10:31:28.638Z,13.00
2022-11-19T10:32:28.588Z,13.20
2022-11-19T10:33:28.584Z,13.50
2022-11-19T10:34:28.574Z,13.80
2022-11-19T10:35:28.544Z,13.20
2022-11-19T10:36:28.584Z,13.60
2022-11-19T10:37:28.566Z,12.00
2022-11-19T10:38:28.553Z,13.20
2022-11-19T10:39:28.552Z,12.60
2022-11-19T10:40:28.494Z,12.80
2022-11-19T10:41:28.490Z,12.30
2022-11-19T10:42:28.484Z,12.90
2022-11-19T10:43:28.525Z,11.70
2022-11-19T10:44:28.456Z,12.50
2022-11-19T10:45:28.498Z,12.50
2022-11-19T10:46:28.428Z,12.20
2022-11-19T10:47:28.486Z,11.80
2022-11-19T10:48:28.465Z,11.20
2022-11-19T10:49:28.438Z,11.70
2022-11-19T10:50:28.383Z,12.30
2022-11-19T10:51:28.394Z,12.20
2022-11-19T10:52:28.355Z,11.40
2022-11-19T10:53:28.367Z,12.10
2022-11-19T10:54:29.067Z,11.50
2022-11-19T10:55:28.412Z,11.40
2022-11-19T10:56:28.353Z,11.30
2022-11-19T10:57:28.295Z,11.40
2022-11-19T10:58:28.285Z,11.40
2022-11-19T10:59:28.287Z,11.70
2022-11-19T11:00:28.278Z,11.10
2022-11-19T11:01:28.360Z,12.10
2022-11-19T11:02:28.479Z,12.20
2022-11-19T11:03:28.245Z,11.70
2022-11-19T11:04:28.234Z,10.90
2022-11-19T11:05:28.221Z,12.30
2022-11-19T11:06:28.236Z,11.60
2022-11-19T11:07:28.211Z,11.10
2022-11-19T11:08:28.167Z,12.10
2022-11-19T11:09:28.189Z,12.00
2022-11-19T11:10:28.139Z,10.70
2022-11-19T11:11:28.140Z,10.90
2022-11-19T11:12:28.148Z,11.20
2022-11-19T11:13:28.116Z,11.20
2022-11-19T11:14:28.117Z,12.70
2022-11-19T11:15:28.179Z,12.80
2022-11-19T11:16:28.100Z,11.50
2022-11-19T11:17:28.100Z,12.20
2022-11-19T11:18:28.085Z,12.90
2022-11-19T11:19:28.042Z,12.20
2022-11-19T11:20:28.028Z,11.60
2022-11-19T11:21:28.038Z,11.80
2022-11-19T11:22:28.008Z,12.50
2022-11-19T11:23:28.096Z,11.40
2022-11-19T11:24:28.030Z,10.90
2022-11-19T11:25:28.032Z,10.30
2022-11-19T11:26:27.968Z,11.80
2022-11-19T11:27:27.980Z,10.60
2022-11-19T11:28:27.929Z,11.30
2022-11-19T11:29:29.167Z,11.10
2022-11-19T11:30:27.910Z,13.50
2022-11-19T11:31:27.908Z,12.70
2022-11-19T11:32:27.898Z,12.00
2022-11-19T11:33:27.902Z,12.50
2022-11-19T11:34:27.880Z,12.30
2022-11-19T11:35:27.880Z,11.30
2022-11-19T11:36:27.859Z,10.40
2022-11-19T11:37:27.831Z,11.30
2022-11-19T11:38:27.830Z,11.20
2022-11-19T11:39:27.834Z,9.90
2022-11-19T11:40:27.809Z,10.60
2022-11-19T11:42:04.447Z,11.20
2022-11-19T11:42:28.813Z,9.80
2022-11-19T11:43:27.775Z,10.90
2022-11-19T11:44:27.882Z,10.80
2022-11-19T11:45:27.761Z,11.00
2022-11-19T11:46:27.946Z,10.70
2022-11-19T11:47:27.717Z,10.20
2022-11-19T11:48:27.703Z,10.50
2022-11-19T11:49:27.705Z,10.70
2022-11-19T11:50:27.687Z,10.30
2022-11-19T11:51:27.684Z,10.80
2022-11-19T11:52:27.680Z,11.00
2022-11-19T11:53:27.664Z,11.10
2022-11-19T11:54:27.641Z,10.70
2022-11-19T11:55:27.704Z,11.20
2022-11-19T11:56:27.620Z,10.80
2022-11-19T11:57:27.620Z,10.30
2022-11-19T11:58:27.633Z,9.70
2022-11-19T11:59:27.618Z,10.50
2022-11-19T12:00:28.632Z,10.40
2022-11-19T12:01:27.565Z,9.60
2022-11-19T12:02:27.590Z,9.50
2022-11-19T12:03:27.541Z,10.00
2022-11-19T12:04:27.563Z,10.10
2022-11-19T12:05:27.544Z,10.50
2022-11-19T12:06:27.520Z,10.50
2022-11-19T12:07:27.675Z,10.80
2022-11-19T12:08:27.493Z,10.50
2022-11-19T12:09:27.533Z,10.20
2022-11-19T12:10:28.788Z,10.70
2022-11-19T12:11:27.476Z,10.00
2022-11-19T12:12:27.636Z,10.70
2022-11-19T12:13:29.076Z,9.60
2022-11-19T12:14:27.536Z,9.50
2022-11-19T12:15:27.410Z,10.00
2022-11-19T12:16:27.429Z,10.10
2022-11-19T12:17:27.374Z,10.20
2022-11-19T12:18:27.373Z,9.40
2022-11-19T12:19:27.360Z,9.80
2022-11-19T12:20:27.340Z,9.80
2022-11-19T12:21:27.823Z,10.00
2022-11-19T12:22:27.322Z,9.80
2022-11-19T12:23:27.303Z,10.40
2022-11-19T12:24:27.293Z,10.20
2022-11-19T12:25:27.283Z,9.90
2022-11-19T12:26:27.295Z,10.60
2022-11-19T12:27:27.312Z,10.00
2022-11-19T12:28:27.273Z,10.40
2022-11-19T12:29:27.237Z,9.80
2022-11-19T12:30:27.239Z,9.70
2022-11-19T12:31:29.883Z,9.50
2022-11-19T12:32:27.205Z,9.40
2022-11-19T12:33:27.251Z,9.80
2022-11-19T12:34:27.255Z,10.10
2022-11-19T12:35:27.183Z,9.80
2022-11-19T12:36:27.170Z,9.70
2022-11-19T12:37:27.147Z,10.10
2022-11-19T12:38:27.134Z,10.40
2022-11-19T12:39:27.176Z,9.90
2022-11-19T12:40:29.964Z,9.80
2022-11-19T12:41:28.118Z,9.40
2022-11-19T12:42:27.124Z,10.50
2022-11-19T12:43:27.084Z,9.80
2022-11-19T12:44:27.095Z,10.40
2022-11-19T12:45:27.045Z,10.30
2022-11-19T12:46:27.070Z,9.60
2022-11-19T12:47:27.037Z,10.70
2022-11-19T12:48:27.030Z,9.90
2022-11-19T12:49:27.021Z,10.00
2022-11-19T12:50:27.057Z,9.40
2022-11-19T12:51:27.032Z,9.90
2022-11-19T12:52:27.016Z,9.60
2022-11-19T12:53:26.956Z,9.40
2022-11-19T12:54:34.411Z,8.40
2022-11-19T12:55:27.985Z,9.70
2022-11-19T12:56:26.927Z,9.60